createdAt,value
2018-12-26T00:02:57.302Z,97364.45
2018-12-26T00:05:46.385Z,97365.63
2018-12-26T00:08:16.270Z,97354.90
2018-12-26T00:13:36.432Z,97356.41
2018-12-26T00:16:06.325Z,97361.81
2018-12-26T00:19:14.114Z,97371.86
2018-12-26T00:21:43.805Z,97363.63
2018-12-26T00:24:13.578Z,97364.28
2018-12-26T00:27:02.660Z,97357.86
2018-12-26T00:30:12.139Z,97352.27
2018-12-26T00:32:42.013Z,97353.09
2018-12-26T00:35:30.792Z,97343.20
2018-12-26T00:38:00.561Z,97344.36
2018-12-26T00:40:49.542Z,97334.81
2018-12-26T00:43:38.299Z,97334.81
2018-12-26T00:46:08.165Z,97337.45
2018-12-26T00:48:57.236Z,97326.58
2018-12-26T00:51:29.468Z,97326.41
2018-12-26T00:54:18.182Z,97330.20
2018-12-26T00:56:48.790Z,97331.68
2018-12-26T00:59:18.461Z,97343.70
2018-12-26T01:02:07.279Z,97346.66
2018-12-26T01:04:37.115Z,97343.86
2018-12-26T01:07:07.320Z,97350.45
2018-12-26T01:12:49.367Z,97359.18
2018-12-26T01:15:19.408Z,97345.19
2018-12-26T01:18:08.337Z,97341.06
2018-12-26T01:20:38.115Z,97325.09
2018-12-26T01:23:08.060Z,97329.74
2018-12-26T01:25:57.253Z,97330.56
2018-12-26T01:28:27.021Z,97335.83
2018-12-26T01:30:56.834Z,97337.45
2018-12-26T01:33:26.642Z,97341.92
2018-12-26T01:36:15.490Z,97348.34
2018-12-26T01:39:05.855Z,97349.17
2018-12-26T01:41:35.667Z,97344.39
2018-12-26T01:44:24.797Z,97344.40
2018-12-26T01:46:54.564Z,97343.41
2018-12-26T01:49:24.353Z,97332.05
2018-12-26T01:51:54.121Z,97339.95
2018-12-26T01:54:43.154Z,97334.19
2018-12-26T01:57:12.960Z,97330.56
2018-12-26T02:02:52.133Z,97344.39
2018-12-26T02:05:22.048Z,97331.89
2018-12-26T02:08:13.127Z,97332.91
2018-12-26T02:10:44.760Z,97337.31
2018-12-26T02:13:14.496Z,97346.70
2018-12-26T02:16:03.691Z,97343.94
2018-12-26T02:18:33.433Z,97336.33
2018-12-26T02:21:23.366Z,97339.79
2018-12-26T02:23:53.202Z,97344.56
2018-12-26T02:26:22.977Z,97349.20
2018-12-26T02:28:53.097Z,97351.84
2018-12-26T02:31:41.992Z,97346.90
2018-12-26T02:34:12.052Z,97343.61
2018-12-26T02:36:43.121Z,97338.50
2018-12-26T02:39:32.271Z,97337.35
2018-12-26T02:42:02.388Z,97337.19
2018-12-26T02:47:52.195Z,97326.16
2018-12-26T02:53:10.567Z,97329.81
2018-12-26T02:56:18.150Z,97328.99
2018-12-26T02:58:47.921Z,97322.08
2018-12-26T03:01:18.234Z,97324.25
2018-12-26T03:04:07.326Z,97323.75
2018-12-26T03:06:37.621Z,97320.63
2018-12-26T03:09:08.856Z,97314.05
2018-12-26T03:15:03.863Z,97312.04
2018-12-26T03:17:52.667Z,97306.14
2018-12-26T03:20:22.462Z,97302.49
2018-12-26T03:23:11.219Z,97308.09
2018-12-26T03:25:41.045Z,97293.27
2018-12-26T03:28:10.752Z,97295.09
2018-12-26T03:30:59.793Z,97302.49
2018-12-26T03:33:29.626Z,97299.03
2018-12-26T03:36:01.571Z,97303.31
2018-12-26T03:38:42.868Z,97296.23
2018-12-26T03:41:12.615Z,97303.52
2018-12-26T03:43:44.934Z,97298.25
2018-12-26T03:46:33.686Z,97302.20
2018-12-26T03:49:03.502Z,97302.20
2018-12-26T03:51:52.623Z,97299.40
2018-12-26T03:54:24.301Z,97296.60
2018-12-26T03:56:54.182Z,97305.66
2018-12-26T03:59:25.326Z,97308.45
2018-12-26T04:02:14.518Z,97304.34
2018-12-26T04:04:44.262Z,97298.25
2018-12-26T04:07:14.031Z,97297.59
2018-12-26T04:10:03.221Z,97304.33
2018-12-26T04:12:44.920Z,97303.31
2018-12-26T04:15:14.793Z,97295.78
2018-12-26T04:18:03.872Z,97291.66
2018-12-26T04:20:33.858Z,97302.20
2018-12-26T04:23:03.571Z,97304.01
2018-12-26T04:25:53.664Z,97291.00
2018-12-26T04:30:59.666Z,97283.60
2018-12-26T04:33:48.841Z,97281.33
2018-12-26T04:36:18.746Z,97282.31
2018-12-26T04:38:48.868Z,97280.02
2018-12-26T04:41:38.000Z,97277.05
2018-12-26T04:44:08.027Z,97292.33
2018-12-26T04:46:37.801Z,97297.26
2018-12-26T04:49:26.858Z,97301.20
2018-12-26T04:51:57.149Z,97315.36
2018-12-26T04:55:06.441Z,97304.33
2018-12-26T04:57:36.256Z,97267.97
2018-12-26T05:00:25.335Z,97270.44
2018-12-26T05:02:55.132Z,97279.81
2018-12-26T05:05:24.858Z,97275.87
2018-12-26T05:07:54.640Z,97289.03
2018-12-26T05:10:43.685Z,97295.13
2018-12-26T05:13:13.465Z,97284.42
2018-12-26T05:15:43.205Z,97289.20
2018-12-26T05:18:32.237Z,97295.91
2018-12-26T05:23:50.777Z,97297.23
2018-12-26T05:26:39.793Z,97287.35
2018-12-26T05:29:09.619Z,97293.11
2018-12-26T05:31:39.305Z,97304.33
2018-12-26T05:34:28.357Z,97316.98
2018-12-26T05:36:59.283Z,97326.72
2018-12-26T05:39:28.997Z,97319.77
2018-12-26T05:42:18.087Z,97330.80
2018-12-26T05:44:50.159Z,97315.98
2018-12-26T05:47:20.324Z,97289.20
2018-12-26T05:49:50.569Z,97287.38
2018-12-26T05:52:39.609Z,97281.46
2018-12-26T05:55:09.442Z,97279.32
2018-12-26T05:57:42.896Z,97288.53
2018-12-26T06:00:21.749Z,97300.58
2018-12-26T06:02:51.517Z,97293.67
2018-12-26T06:05:21.249Z,97298.94
2018-12-26T06:08:11.379Z,97297.78
2018-12-26T06:10:41.163Z,97305.19
2018-12-26T06:13:11.011Z,97311.94
2018-12-26T06:15:40.790Z,97318.02
2018-12-26T06:18:29.824Z,97322.30
2018-12-26T06:21:00.071Z,97322.14
2018-12-26T06:23:29.764Z,97333.66
2018-12-26T06:25:59.503Z,97338.59
2018-12-26T06:28:48.564Z,97341.38
2018-12-26T06:31:18.417Z,97345.17
2018-12-26T06:33:48.141Z,97349.45
2018-12-26T06:39:36.833Z,97347.80
2018-12-26T06:42:06.799Z,97352.41
2018-12-26T06:44:55.904Z,97362.12
2018-12-26T06:47:25.697Z,97353.06
2018-12-26T06:49:55.394Z,97342.86
2018-12-26T06:55:46.211Z,97347.97
2018-12-26T06:58:16.038Z,97338.75
2018-12-26T07:00:46.268Z,97337.11
2018-12-26T07:03:35.398Z,97324.44
2018-12-26T07:06:05.161Z,97328.06
2018-12-26T07:08:35.255Z,97324.27
2018-12-26T07:11:24.339Z,97327.73
2018-12-26T07:13:54.099Z,97324.95
2018-12-26T07:16:24.171Z,97313.94
2018-12-26T07:18:53.968Z,97310.31
2018-12-26T07:21:43.000Z,97303.90
2018-12-26T07:24:12.990Z,97310.64
2018-12-26T07:26:43.077Z,97316.05
2018-12-26T07:29:31.808Z,97319.36
2018-12-26T07:32:01.731Z,97316.23
2018-12-26T07:34:31.593Z,97320.35
2018-12-26T07:37:20.384Z,97321.83
2018-12-26T07:39:50.607Z,97324.95
2018-12-26T07:42:59.966Z,97316.42
2018-12-26T07:45:29.773Z,97311.16
2018-12-26T07:47:59.609Z,97306.88
2018-12-26T07:50:29.387Z,97307.86
2018-12-26T07:53:18.435Z,97306.41
2018-12-26T07:55:48.228Z,97304.57
2018-12-26T08:01:25.518Z,97306.88
2018-12-26T08:04:07.007Z,97304.08
2018-12-26T08:09:25.812Z,97310.67
2018-12-26T08:15:10.476Z,97308.34
2018-12-26T08:17:34.951Z,97313.44
2018-12-26T08:20:23.725Z,97310.78
2018-12-26T08:22:54.971Z,97307.66
2018-12-26T08:25:24.684Z,97307.69
2018-12-26T08:28:51.109Z,97305.05
2018-12-26T08:31:39.918Z,97302.25
2018-12-26T08:34:09.974Z,97292.55
2018-12-26T08:36:39.796Z,97302.25
2018-12-26T08:39:28.871Z,97300.12
2018-12-26T08:42:19.749Z,97307.52
2018-12-26T08:47:45.517Z,97302.06
2018-12-26T08:50:15.323Z,97308.48
2018-12-26T08:53:07.413Z,97304.53
2018-12-26T08:55:37.520Z,97286.89
2018-12-26T08:58:07.610Z,97292.33
2018-12-26T09:00:37.349Z,97296.60
2018-12-26T09:03:26.500Z,97302.20
2018-12-26T09:06:08.550Z,97300.68
2018-12-26T09:08:27.903Z,97300.52
2018-12-26T09:10:58.104Z,97291.96
2018-12-26T09:16:16.517Z,97291.66
2018-12-26T09:19:05.258Z,97284.59
2018-12-26T09:21:35.220Z,97282.12
2018-12-26T09:24:08.063Z,97281.42
2018-12-26T09:26:57.427Z,97284.39
2018-12-26T09:29:46.015Z,97279.41
2018-12-26T09:32:18.396Z,97283.40
2018-12-26T09:35:07.834Z,97289.95
2018-12-26T09:37:56.374Z,97282.87
2018-12-26T09:40:26.506Z,97290.27
2018-12-26T09:43:15.331Z,97309.98
2018-12-26T09:45:56.927Z,97302.42
2018-12-26T09:48:27.546Z,97293.89
2018-12-26T09:57:33.797Z,97284.63
2018-12-26T10:03:31.353Z,97282.98
2018-12-26T10:06:21.668Z,97274.09
2018-12-26T10:09:13.646Z,97286.41
2018-12-26T10:11:45.309Z,97280.02
2018-12-26T10:14:34.075Z,97289.85
2018-12-26T10:22:51.117Z,97284.09
2018-12-26T10:25:20.956Z,97285.58
2018-12-26T10:27:50.723Z,97274.38
2018-12-26T10:30:40.126Z,97260.17
2018-12-26T10:33:09.965Z,97257.53
2018-12-26T10:41:09.893Z,97257.09
2018-12-26T10:43:39.690Z,97259.56
2018-12-26T10:46:40.853Z,97255.44
2018-12-26T10:49:12.288Z,97249.80
2018-12-26T10:51:42.088Z,97252.59
2018-12-26T11:07:24.873Z,97230.78
2018-12-26T11:15:34.516Z,97234.35
2018-12-26T11:21:50.157Z,97234.89
2018-12-26T11:24:08.689Z,97221.05
2018-12-26T11:26:38.425Z,97218.76
2018-12-26T11:29:27.748Z,97214.33
2018-12-26T11:34:37.434Z,97218.05
2018-12-26T11:37:45.077Z,97213.41
2018-12-26T11:40:15.000Z,97211.27
2018-12-26T11:42:46.482Z,97209.63
2018-12-26T11:45:35.601Z,97215.55
2018-12-26T11:48:25.864Z,97209.95
2018-12-26T11:56:31.810Z,97210.07
2018-12-26T11:59:40.516Z,97196.27
2018-12-26T12:02:10.257Z,97193.46
2018-12-26T12:04:42.488Z,97192.27
2018-12-26T12:10:28.408Z,97195.38
2018-12-26T12:13:19.257Z,97195.55
2018-12-26T12:15:49.059Z,97200.84
2018-12-26T12:19:10.266Z,97196.09
2018-12-26T12:24:31.450Z,97198.69
2018-12-26T12:27:23.340Z,97197.37
2018-12-26T12:47:52.173Z,97199.91
2018-12-26T12:50:25.232Z,97198.42
2018-12-26T12:53:15.947Z,97193.15
2018-12-26T12:58:41.171Z,97187.74
2018-12-26T13:06:57.631Z,97189.39
2018-12-26T13:10:08.348Z,97189.39
2018-12-26T13:12:38.395Z,97190.38
2018-12-26T13:15:27.193Z,97192.20
2018-12-26T13:17:59.598Z,97188.24
2018-12-26T13:21:01.063Z,97191.20
2018-12-26T13:23:21.267Z,97191.53
2018-12-26T13:26:32.389Z,97191.91
2018-12-26T13:32:06.902Z,97198.29
2018-12-26T13:34:55.629Z,97192.02
2018-12-26T13:40:21.260Z,97193.22
2018-12-26T13:43:10.020Z,97189.61
2018-12-26T13:45:54.320Z,97187.80
2018-12-26T13:48:30.376Z,97189.46
2018-12-26T13:51:00.632Z,97188.79
2018-12-26T13:53:49.437Z,97189.11
2018-12-26T13:56:19.220Z,97187.95
2018-12-26T13:59:28.845Z,97192.69
2018-12-26T14:02:19.387Z,97189.61
2018-12-26T14:04:50.246Z,97195.38
2018-12-26T14:07:39.366Z,97191.27
2018-12-26T14:10:26.227Z,97191.10
2018-12-26T14:12:57.263Z,97193.24
2018-12-26T14:15:46.400Z,97192.75
2018-12-26T14:18:35.440Z,97186.50
2018-12-26T14:21:05.370Z,97195.72
2018-12-26T14:26:32.002Z,97196.70
2018-12-26T14:29:01.759Z,97204.11
2018-12-26T14:31:50.883Z,97204.13
2018-12-26T14:34:59.849Z,97201.00
2018-12-26T14:37:49.795Z,97195.89
2018-12-26T14:40:19.680Z,97194.45
2018-12-26T14:42:49.394Z,97201.22
2018-12-26T14:45:38.458Z,97206.16
2018-12-26T14:48:27.290Z,97206.81
2018-12-26T14:50:57.027Z,97205.17
2018-12-26T14:53:46.345Z,97212.26
2018-12-26T14:57:07.029Z,97213.58
2018-12-26T15:02:22.181Z,97211.11
2018-12-26T15:04:52.131Z,97217.72
2018-12-26T15:08:01.030Z,97211.45
2018-12-26T15:10:49.789Z,97212.16
2018-12-26T15:13:31.365Z,97208.81
2018-12-26T15:16:20.226Z,97205.03
2018-12-26T15:19:09.433Z,97211.28
2018-12-26T15:21:39.773Z,97209.14
2018-12-26T15:24:28.737Z,97216.23
2018-12-26T15:27:37.931Z,97214.41
2018-12-26T15:30:07.774Z,97215.08
2018-12-26T15:32:56.982Z,97213.77
2018-12-26T15:35:29.595Z,97217.05
2018-12-26T15:41:17.093Z,97213.77
2018-12-26T15:49:17.093Z,97210.84
2018-12-26T15:52:12.822Z,97206.23
2018-12-26T15:54:44.887Z,97203.72
2018-12-26T15:57:14.632Z,97209.19
2018-12-26T16:00:05.919Z,97211.13
2018-12-26T16:11:40.610Z,97215.73
2018-12-26T16:14:22.604Z,97222.98
2018-12-26T16:16:52.373Z,97225.78
2018-12-26T16:22:32.472Z,97232.19
2018-12-26T16:25:40.158Z,97236.63
2018-12-26T16:28:28.712Z,97234.82
2018-12-26T16:30:58.383Z,97232.68
2018-12-26T16:33:28.136Z,97233.19
2018-12-26T16:36:35.981Z,97234.02
2018-12-26T16:39:06.851Z,97231.05
2018-12-26T16:44:25.978Z,97222.49
2018-12-26T16:50:10.813Z,97219.19
2018-12-26T16:56:05.980Z,97225.11
2018-12-26T16:58:36.346Z,97222.81
2018-12-26T17:01:25.385Z,97222.32
2018-12-26T17:03:55.430Z,97222.97
2018-12-26T17:06:28.083Z,97224.45
2018-12-26T17:09:17.262Z,97221.64
2018-12-26T17:14:54.623Z,97226.21
2018-12-26T17:20:38.044Z,97226.36
2018-12-26T17:26:12.211Z,97230.64
2018-12-26T17:29:01.075Z,97228.02
2018-12-26T17:31:30.990Z,97217.13
2018-12-26T17:34:00.778Z,97219.27
2018-12-26T17:36:50.070Z,97228.28
2018-12-26T17:39:38.976Z,97229.93
2018-12-26T17:42:08.726Z,97230.91
2018-12-26T17:45:18.138Z,97232.72
2018-12-26T17:50:59.059Z,97236.67
2018-12-26T17:54:07.205Z,97236.18
2018-12-26T17:56:58.155Z,97231.72
2018-12-26T18:00:18.352Z,97230.58
2018-12-26T18:03:27.952Z,97233.22
2018-12-26T18:05:59.423Z,97228.27
2018-12-26T18:09:07.041Z,97236.50
2018-12-26T18:11:37.153Z,97240.78
2018-12-26T18:22:33.690Z,97249.69
2018-12-26T18:25:15.191Z,97247.39
2018-12-26T18:28:06.798Z,97249.58
2018-12-26T18:33:50.947Z,97259.80
2018-12-26T18:36:23.068Z,97259.47
2018-12-26T18:39:12.119Z,97259.47
2018-12-26T18:41:41.773Z,97255.02
2018-12-26T18:44:23.825Z,97254.20
2018-12-26T18:52:53.925Z,97255.97
2018-12-26T18:55:43.044Z,97247.44
2018-12-26T18:58:13.455Z,97256.17
2018-12-26T19:01:39.020Z,97248.59
2018-12-26T19:07:58.808Z,97252.55
2018-12-26T19:13:18.157Z,97244.92
2018-12-26T19:16:21.279Z,97249.70
2018-12-26T19:22:18.689Z,97247.39
2018-12-26T19:27:56.083Z,97255.28
2018-12-26T19:30:26.034Z,97250.02
2018-12-26T19:32:56.108Z,97250.83
2018-12-26T19:35:25.846Z,97246.20
2018-12-26T19:41:46.009Z,97241.76
2018-12-26T19:44:15.792Z,97244.69
2018-12-26T19:47:04.847Z,97250.61
2018-12-26T19:56:05.849Z,97243.20
2018-12-26T20:01:52.754Z,97235.44
2018-12-26T20:04:43.464Z,97241.21
2018-12-26T20:10:28.133Z,97240.87
2018-12-26T20:12:58.272Z,97234.27
2018-12-26T20:16:09.604Z,97233.45
2018-12-26T20:19:01.436Z,97232.45
2018-12-26T20:21:31.208Z,97228.33
2018-12-26T20:24:20.326Z,97234.05
2018-12-26T20:27:07.457Z,97234.72
2018-12-26T20:30:11.350Z,97229.27
2018-12-26T20:32:33.178Z,97226.14
2018-12-26T20:38:16.041Z,97234.05
2018-12-26T20:41:17.532Z,97225.14
2018-12-26T20:44:12.773Z,97223.00
2018-12-26T20:56:33.364Z,97213.42
2018-12-26T21:05:16.013Z,97215.51
2018-12-26T21:11:00.503Z,97216.50
2018-12-26T21:13:49.373Z,97216.50
2018-12-26T21:16:21.296Z,97212.25
2018-12-26T21:19:10.790Z,97216.21
2018-12-26T21:21:40.663Z,97209.30
2018-12-26T21:24:10.369Z,97216.71
2018-12-26T21:26:59.484Z,97214.07
2018-12-26T21:29:48.877Z,97214.07
2018-12-26T21:32:57.977Z,97213.87
2018-12-26T21:38:57.869Z,97218.47
2018-12-26T21:47:37.063Z,97211.87
2018-12-26T21:53:23.495Z,97208.42
2018-12-26T21:56:14.001Z,97206.92
2018-12-26T22:02:13.121Z,97208.73
2018-12-26T22:07:43.038Z,97204.94
2018-12-26T22:10:31.989Z,97208.89
2018-12-26T22:13:02.055Z,97208.24
2018-12-26T22:16:11.000Z,97204.28
2018-12-26T22:18:59.881Z,97202.80
2018-12-26T22:21:30.515Z,97206.25
2018-12-26T22:27:19.918Z,97207.08
2018-12-26T22:29:58.233Z,97205.25
2018-12-26T22:32:30.742Z,97214.81
2018-12-26T22:35:18.574Z,97207.22
2018-12-26T22:40:45.772Z,97207.08
2018-12-26T22:43:26.317Z,97211.53
2018-12-26T22:45:58.580Z,97207.89
2018-12-26T22:49:25.023Z,97211.85
2018-12-26T22:51:55.315Z,97206.08
2018-12-26T22:54:46.801Z,97208.72
2018-12-26T23:00:07.930Z,97205.41
2018-12-26T23:02:57.043Z,97201.23
2018-12-26T23:05:29.441Z,97197.78
2018-12-26T23:08:02.026Z,97199.75
2018-12-26T23:10:43.695Z,97193.65
2018-12-26T23:13:25.148Z,97204.53
2018-12-26T23:15:57.718Z,97197.93
2018-12-26T23:19:07.096Z,97193.30
2018-12-26T23:25:01.769Z,97186.85
2018-12-26T23:27:51.464Z,97185.86
2018-12-26T23:30:23.722Z,97190.11
2018-12-26T23:33:07.351Z,97188.78
2018-12-26T23:35:28.136Z,97193.27
2018-12-26T23:37:59.640Z,97195.20
2018-12-26T23:40:50.007Z,97196.03
2018-12-26T23:43:20.327Z,97195.70
2018-12-26T23:45:52.787Z,97197.84
2018-12-26T23:48:41.857Z,97195.53
2018-12-26T23:51:23.681Z,97192.06
2018-12-26T23:53:53.654Z,97193.21
2018-12-26T23:56:43.306Z,97186.62
2018-12-26T23:59:13.522Z,97182.48
